Flight Track Log - Related Links

Times and Time Zones

All times are in EDT time to prevent confusion due to time zone crossing. See the DAL1114 flight status page for this flight to view local times or setup timezone preferences in your user account.

Time Position Orientation Groundspeed Altitude Reporting Facility
EDT Latitude Longitude Course Direction KTS MPH feet Rate Location/Type
Sun 07:30:32 PM 40.8153 -112.0019 133° Southeast 187 215 5,100  Level Salt Lake Center
Sun 07:31:08 PM 40.8461 -112.0056 355° North 192 221 5,800 986 Climbing Salt Lake Center
Sun 07:31:45 PM 40.8836 -112.0092 356° North 227 261 6,300 1,898 Climbing Salt Lake Center
Sun 07:32:46 PM 40.9575 -112.0175 355° North 263 303 8,900 2,537 Climbing Salt Lake Center
Sun 07:33:00 PM 41.1333 -111.9083 90° East  Level FlightAware Approximate
Sun 07:33:48 PM 41.0303 -111.9914 15° North 279 321 11,500  Level Salt Lake Center
Sun 07:34:00 PM 41.1060 -111.7453 124° Southeast  Level FlightAware Approximate
Sun 07:34:49 PM 41.0364 -111.8847 86° East 299 344 13,500  Level Salt Lake Center
Sun 07:35:00 PM 41.0184 -111.6191 133° Southeast  Level FlightAware Approximate
Sun 07:35:51 PM 41.0317 -111.7522 93° East 329 379 15,000  Level Salt Lake Center
Sun 07:36:52 PM 41.0297 -111.6158 91° East 373 429 16,100 1,024 Climbing Salt Lake Center
Sun 07:37:54 PM 41.0428 -111.4633 83° East 417 480 17,100 1,258 Climbing Salt Lake Center
Sun 07:38:56 PM 41.0558 -111.3028 84° East 437 503 18,700 1,512 Climbing Salt Lake Center
Sun 07:39:57 PM 41.0664 -111.1389 85° East 448 516 20,200 1,512 Climbing Salt Lake Center
Sun 07:40:59 PM 41.0817 -110.9344 84° East 464 534 21,800 1,463 Climbing Salt Lake Center
Sun 07:42:00 PM 41.0939 -110.7583 85° East 478 550 23,200 1,463 Climbing Salt Lake Center
Sun 07:43:02 PM 41.1069 -110.5817 84° East 484 557 24,800 1,452 Climbing Salt Lake Center
Sun 07:44:04 PM 41.1186 -110.4017 85° East 469 540 26,200 1,122 Climbing Salt Lake Center
Sun 07:45:05 PM 41.1289 -110.2325 85° East 479 551 27,100 829 Climbing Salt Lake Center
Sun 07:46:07 PM 41.1436 -110.0306 84° East 492 566 27,900 780 Climbing Salt Lake Center
Sun 07:47:08 PM 41.1544 -109.8528 85° East 504 580 28,700 780 Climbing Salt Lake Center
Sun 07:48:10 PM 41.1667 -109.6439 85° East 510 587 29,500 677 Climbing Salt Lake Center
Sun 07:49:12 PM 41.1783 -109.4603 85° East 522 601 30,100 585 Climbing Salt Lake Center
Sun 07:50:13 PM 41.1906 -109.2444 86° East 531 611 30,700 634 Climbing Salt Lake Center
Sun 07:51:15 PM 41.2017 -109.0583 85° East 535 616 31,400 871 Climbing Salt Lake Center
Sun 07:52:17 PM 41.2133 -108.8419 86° East 534 615 32,500 732 Climbing Salt Lake Center
Sun 07:53:18 PM 41.2239 -108.6569 86° East 531 611 32,900 313 Climbing Salt Lake Center
Sun 07:53:53 PM 41.2297 -108.5289 86° East 535 616 33,000 62 Climbing Denver Center
Sun 07:54:55 PM 41.2389 -108.3433 86° East 531 611 33,000  Level Denver Center
Sun 07:55:57 PM 41.2492 -108.1239 86° East 534 615 33,000  Level Denver Center
Sun 07:56:23 PM 41.2525 -108.0606 86° East 539 620 33,000 68 Level Salt Lake Center
Sun 07:57:25 PM 41.2619 -107.8392 87° East 540 621 33,100 61 Climbing Salt Lake Center
Sun 07:58:01 PM 41.2675 -107.7125 87° East 537 618 33,100 -61 Level Denver Center
Sun 07:59:03 PM 41.2767 -107.5242 86° East 536 617 33,000 -49 Descending Denver Center
Sun 08:00:04 PM 41.2847 -107.3367 87° East 533 613 33,000  Level Denver Center
Sun 08:01:06 PM 41.2931 -107.1214 87° East 525 604 33,000  Level Denver Center
Sun 08:02:08 PM 41.2997 -106.9369 87° East 524 603 33,000  Level Denver Center
Sun 08:03:10 PM 41.3078 -106.7231 87° East 521 600 33,000  Level Denver Center
Sun 08:04:12 PM 41.3133 -106.5694 87° East 522 601 33,000  Level Denver Center
Sun 08:05:14 PM 41.3200 -106.3206 88° East 526 605 33,000 48 Level Denver Center
Sun 08:06:16 PM 41.3267 -106.1372 87° East 521 600 33,100  Climbing Denver Center
Sun 08:07:18 PM 41.3322 -105.9256 88° East 517 595 33,000 -48 Descending Denver Center
Sun 08:08:20 PM 41.3375 -105.7442 88° East 514 592 33,000  Level Denver Center
Sun 08:09:22 PM 41.3450 -105.5319 87° East 515 593 33,000  Level Denver Center
Sun 08:10:23 PM 41.3517 -105.3506 87° East 513 590 33,000  Level Denver Center
Sun 08:11:25 PM 41.3575 -105.1383 88° East 515 593 33,000  Level Denver Center
Sun 08:12:27 PM 41.3636 -104.9597 87° East 508 585 33,000  Level Denver Center
Sun 08:13:29 PM 41.3683 -104.7775 88° East 513 590 33,000  Level Denver Center
Sun 08:14:31 PM 41.3744 -104.5711 88° East 507 583 33,000  Level Denver Center
Sun 08:15:33 PM 41.3794 -104.3900 88° East 513 590 33,000  Level Denver Center
Sun 08:16:35 PM 41.3850 -104.1792 88° East 511 588 33,000  Level Denver Center
Sun 08:17:37 PM 41.3889 -103.9978 88° East 513 590 33,000  Level Denver Center
Sun 08:18:39 PM 41.3928 -103.7869 89° East 511 588 33,000  Level Denver Center
Sun 08:19:40 PM 41.3975 -103.6053 88° East 514 592 33,000  Level Denver Center
Sun 08:20:42 PM 41.4008 -103.3956 89° East 511 588 33,000  Level Denver Center
Sun 08:21:44 PM 41.4031 -103.2136 89° East 513 590 33,000  Level Denver Center
Sun 08:22:46 PM 41.4064 -103.0006 89° East 515 593 33,000  Level Denver Center
Sun 08:23:48 PM 41.4089 -102.8181 89° East 515 593 33,000  Level Denver Center
Sun 08:24:50 PM 41.4114 -102.6031 89° East 519 597 33,000  Level Denver Center
Sun 08:25:52 PM 41.4139 -102.4100 89° East 520 598 33,000  Level Denver Center
Sun 08:26:54 PM 41.4142 -102.2283 90° East 515 593 33,000  Level Denver Center
Sun 08:27:56 PM 41.4153 -102.0167 90° East 511 588 33,000  Level Denver Center
Sun 08:28:58 PM 41.4169 -101.8353 89° East 512 589 33,000  Level Denver Center
Sun 08:30:00 PM 41.4172 -101.6228 90° East 513 590 33,000  Level Denver Center
Sun 08:31:14 PM 41.4172 -101.4419 90° East 509 586 33,000 482 Level Denver Center
Sun 08:32:17 PM 41.4172 -101.2053 90° East 498 573 34,100 960 Climbing Denver Center
Sun 08:33:19 PM 41.4169 -101.0339 90° East 485 558 35,000 439 Climbing Denver Center
Sun 08:34:20 PM 41.4164 -100.8892 90° East 486 559 35,000  Level Denver Center
Sun 08:35:23 PM 41.4153 -100.6539 90° East 495 570 35,000  Level Denver Center
Sun 08:36:25 PM 41.4131 -100.4467 91° East 500 575 35,000  Level Denver Center
Sun 08:37:27 PM 41.4114 -100.2664 91° East 504 580 35,000 48 Level Denver Center
Sun 08:38:29 PM 41.4092 -100.0858 91° East 508 585 35,100  Climbing Denver Center
Sun 08:39:31 PM 41.4069 -99.8764 91° East 506 582 35,000 -48 Descending Denver Center
Sun 08:40:33 PM 41.4042 -99.6778 91° East 505 581 35,000  Level Denver Center
Sun 08:41:35 PM 41.4017 -99.4919 91° East 503 579 35,000  Level Denver Center
Sun 08:42:37 PM 41.3981 -99.3036 91° East 505 581 35,000  Level Denver Center
Sun 08:43:39 PM 41.3939 -99.1164 92° East 504 580 35,000 -77 Level Denver Center
Sun 08:43:55 PM 41.3922 -99.0481 92° East 502 578 34,900  Descending Minneapolis Center
Sun 08:44:57 PM 41.3881 -98.8617 92° East 503 579 35,000 49 Climbing Minneapolis Center
Sun 08:45:58 PM 41.3839 -98.6742 92° East 505 581 35,000  Level Minneapolis Center
Sun 08:47:00 PM 41.3806 -98.4875 91° East 506 582 35,000  Level Minneapolis Center
Sun 08:48:02 PM 41.3772 -98.2822 91° East 508 585 35,000  Level Minneapolis Center
Sun 08:49:03 PM 41.3842 -98.0942 87° East 507 583 35,000  Level Minneapolis Center
Sun 08:50:05 PM 41.3900 -97.9261 87° East 505 581 35,000  Level Minneapolis Center
Sun 08:51:06 PM 41.3950 -97.7400 88° East 504 580 35,000  Level Minneapolis Center
Sun 08:52:08 PM 41.3997 -97.5556 88° East 500 575 35,000  Level Minneapolis Center
Sun 08:53:10 PM 41.4061 -97.3322 88° East 503 579 35,000  Level Minneapolis Center
Sun 08:54:11 PM 41.4092 -97.1478 89° East 500 575 35,000  Level Minneapolis Center
Sun 08:55:13 PM 41.4142 -96.9631 88° East 499 574 35,000  Level Minneapolis Center
Sun 08:56:15 PM 41.4181 -96.7792 88° East 498 573 35,000  Level Minneapolis Center
Sun 08:57:16 PM 41.4217 -96.5950 88° East 497 572 35,000  Level Minneapolis Center
Sun 08:58:18 PM 41.4247 -96.4478 88° East 496 571 35,000  Level Minneapolis Center
Sun 08:59:20 PM 41.4175 -96.2033 92° East 508 585 35,000  Level Minneapolis Center
Sun 09:00:21 PM 41.4125 -96.0183 92° East 503 579 35,000  Level Minneapolis Center
Sun 09:01:23 PM 41.4053 -95.8339 93° East 500 575 35,000  Level Minneapolis Center
Sun 09:02:25 PM 41.3975 -95.6517 93° East 495 570 35,000  Level Minneapolis Center
Sun 09:03:27 PM 41.3914 -95.4769 93° East 485 558 35,000  Level Minneapolis Center
Sun 09:04:28 PM 41.3825 -95.2664 93° East 476 548 35,000  Level Minneapolis Center
Sun 09:05:30 PM 41.3750 -95.0897 93° East 478 550 35,000  Level Minneapolis Center
Sun 09:06:32 PM 41.3669 -94.9144 93° East 476 548 35,000  Level Minneapolis Center
Sun 09:07:33 PM 41.3589 -94.7425 94° East 469 540 35,000  Level Minneapolis Center
Sun 09:08:35 PM 41.3514 -94.5683 93° East 470 541 35,000  Level Minneapolis Center
Sun 09:09:37 PM 41.3419 -94.3947 94° East 470 541 35,000  Level Minneapolis Center
Sun 09:10:39 PM 41.3342 -94.2125 93° East 473 544 35,000  Level Minneapolis Center
Sun 09:11:40 PM 41.3228 -94.0375 95° East 476 548 35,000  Level Minneapolis Center
Sun 09:12:42 PM 41.3150 -93.8558 93° East 489 563 35,000  Level Minneapolis Center
Sun 09:13:44 PM 41.3036 -93.6406 94° East 490 564 35,000  Level Minneapolis Center
Sun 09:14:45 PM 41.2944 -93.4583 94° East 493 567 35,000  Level Minneapolis Center
Sun 09:15:47 PM 41.2839 -93.2778 94° East 494 568 35,000  Level Minneapolis Center
Sun 09:16:49 PM 41.2733 -93.0975 94° East 492 566 35,000  Level Minneapolis Center
Sun 09:17:50 PM 41.2628 -92.9197 94° East 488 562 35,000  Level Minneapolis Center
Sun 09:18:52 PM 41.2522 -92.7397 94° East 490 564 35,000  Level Minneapolis Center
Sun 09:19:53 PM 41.2400 -92.5597 95° East 490 564 35,000  Level Minneapolis Center
Sun 09:20:18 PM 41.2325 -92.4500 95° East 488 562 35,000  Level Chicago Center
Sun 09:21:20 PM 41.2214 -92.2717 95° East 487 560 35,000  Level Chicago Center
Sun 09:22:22 PM 41.2097 -92.0939 95° East 486 559 35,000  Level Chicago Center
Sun 09:23:24 PM 41.1961 -91.9156 96° East 488 562 35,000  Level Chicago Center
Sun 09:24:26 PM 41.1842 -91.7394 95° East 481 554 35,000  Level Chicago Center
Sun 09:25:27 PM 41.1703 -91.5594 96° East 482 555 35,000  Level Chicago Center
Sun 09:26:29 PM 41.1578 -91.3822 95° East 483 556 35,000  Level Chicago Center
Sun 09:27:31 PM 41.1447 -91.2053 96° East 483 556 35,000  Level Chicago Center
Sun 09:28:33 PM 41.1283 -90.9933 96° East 482 555 35,000  Level Chicago Center
Sun 09:29:35 PM 41.1144 -90.8172 96° East 480 552 35,000  Level Chicago Center
Sun 09:30:37 PM 41.1006 -90.6394 96° East 484 557 35,000  Level Chicago Center
Sun 09:31:38 PM 41.0861 -90.4636 96° East 481 554 35,000  Level Chicago Center
Sun 09:32:40 PM 41.0714 -90.2900 96° East 475 547 35,000  Level Chicago Center
Sun 09:33:42 PM 41.0561 -90.1144 97° East 475 547 35,000  Level Chicago Center
Sun 09:34:44 PM 41.0411 -89.9375 96° East 479 551 35,000  Level Chicago Center
Sun 09:35:45 PM 41.0247 -89.7603 97° East 479 551 35,000  Level Chicago Center
Sun 09:36:47 PM 41.0083 -89.5858 97° East 475 547 35,000  Level Chicago Center
Sun 09:37:49 PM 40.9900 -89.3761 97° East 475 547 35,000  Level Chicago Center
Sun 09:38:51 PM 40.9736 -89.2031 97° East 473 544 35,000  Level Chicago Center
Sun 09:39:52 PM 40.9567 -89.0297 97° East 473 544 35,000  Level Chicago Center
Sun 09:40:54 PM 40.9406 -88.8567 97° East 474 545 35,000  Level Chicago Center
Sun 09:41:56 PM 40.9236 -88.6917 98° East 474 545 35,000  Level Chicago Center
Sun 09:42:57 PM 40.9064 -88.5206 98° East 474 545 35,000  Level Chicago Center
Sun 09:43:59 PM 40.8858 -88.3139 97° East 477 549 35,000  Level Chicago Center
Sun 09:45:00 PM 40.8692 -88.1417 97° East 478 550 35,000  Level Chicago Center
Sun 09:46:02 PM 40.8508 -87.9717 98° East 476 548 35,000  Level Chicago Center
Sun 09:47:04 PM 40.8336 -87.8019 98° East 473 544 35,000  Level Chicago Center
Sun 09:48:05 PM 40.8158 -87.6322 98° East 473 544 35,000  Level Chicago Center
Sun 09:49:07 PM 40.7933 -87.4256 98° East 479 551 35,000  Level Chicago Center
Sun 09:50:08 PM 40.7747 -87.2564 98° East 473 544 35,000  Level Chicago Center
Sun 09:51:10 PM 40.7556 -87.0850 98° East 477 549 35,000  Level Chicago Center
Sun 09:52:11 PM 40.7356 -86.9153 99° East 474 545 35,000  Level Chicago Center
Sun 09:53:13 PM 40.7153 -86.7447 99° East 475 547 35,000  Level Chicago Center
Sun 09:54:14 PM 40.6917 -86.5528 99° East 469 540 35,000  Level Chicago Center
Sun 09:55:16 PM 40.6708 -86.3817 99° East 474 545 35,000  Level Chicago Center
Sun 09:56:17 PM 40.6506 -86.2119 99° East 473 544 35,000  Level Chicago Center
Sun 09:57:19 PM 40.6297 -86.0425 99° East 476 548 35,000  Level Chicago Center
Sun 09:58:20 PM 40.6089 -85.8739 99° East 473 544 35,000  Level Chicago Center
Sun 09:59:22 PM 40.5869 -85.7036 100° East 476 548 35,000  Level Chicago Center
Sun 10:00:23 PM 40.5661 -85.5361 99° East 471 542 35,000  Level Chicago Center
Sun 10:01:24 PM 40.5397 -85.3314 100° East 474 545 35,000  Level Chicago Center
Sun 10:02:26 PM 40.5181 -85.1622 100° East 474 545 35,000 -59 Level Chicago Center
Sun 10:03:06 PM 40.5019 -85.0386 100° East 468 539 34,900 -59 Descending Indianapolis Center
Sun 10:04:07 PM 40.4800 -84.8694 100° East 466 536 34,900  Level Indianapolis Center
Sun 10:05:08 PM 40.4561 -84.7000 100° East 468 539 34,900 49 Level Indianapolis Center
Sun 10:06:09 PM 40.4333 -84.5283 100° East 470 541 35,000 49 Climbing Indianapolis Center
Sun 10:07:10 PM 40.4100 -84.3575 100° East 471 542 35,000 -49 Level Indianapolis Center
Sun 10:08:11 PM 40.3864 -84.1867 100° East 471 542 34,900  Descending Indianapolis Center
Sun 10:09:12 PM 40.3619 -84.0167 101° East 470 541 35,000  Climbing Indianapolis Center
Sun 10:10:13 PM 40.3378 -83.8439 100° East 474 545 34,900  Descending Indianapolis Center
Sun 10:11:14 PM 40.3136 -83.6725 100° East 474 545 35,000 49 Climbing Indianapolis Center
Sun 10:12:15 PM 40.2886 -83.5000 101° East 474 545 35,000 -49 Level Indianapolis Center
Sun 10:13:16 PM 40.2631 -83.3283 101° East 473 544 34,900  Descending Indianapolis Center
Sun 10:14:16 PM 40.2375 -83.1564 101° East 474 545 35,000  Climbing Indianapolis Center
Sun 10:15:17 PM 40.2117 -82.9842 101° East 475 547 34,900  Descending Indianapolis Center
Sun 10:16:18 PM 40.1853 -82.8125 101° East 476 548 35,000  Climbing Indianapolis Center
Sun 10:17:19 PM 40.1597 -82.6414 101° East 474 545 34,900  Descending Indianapolis Center
Sun 10:18:20 PM 40.1417 -82.4675 98° East 480 552 35,000 49 Climbing Indianapolis Center
Sun 10:19:21 PM 40.1314 -82.2931 94° East 477 549 35,000 -50 Level Indianapolis Center
Sun 10:20:21 PM 40.1189 -82.1189 95° East 479 551 34,900  Descending Indianapolis Center
Sun 10:21:22 PM 40.1056 -81.9458 96° East 475 547 35,000 49 Climbing Indianapolis Center
Sun 10:22:23 PM 40.0925 -81.7719 96° East 477 549 35,000  Level Indianapolis Center
Sun 10:23:24 PM 40.0803 -81.6139 96° East 476 548 35,000  Level Indianapolis Center
Sun 10:24:24 PM 40.0600 -81.4425 99° East 478 550 35,000  Level Indianapolis Center
Sun 10:25:25 PM 40.0319 -81.2747 102° East 472 543 35,000  Level Indianapolis Center
Sun 10:26:26 PM 40.0058 -81.1061 101° East 471 542 35,000  Level Indianapolis Center
Sun 10:27:27 PM 39.9778 -80.9356 102° East 476 548 35,000  Level Indianapolis Center
Sun 10:28:27 PM 39.9500 -80.7658 102° East 477 549 35,000 -496 Level Indianapolis Center
Sun 10:29:28 PM 39.9186 -80.5758 102° East 478 550 34,000 -492 Descending Indianapolis Center
Sun 10:30:29 PM 39.8903 -80.4056 102° East 479 551 34,000  Level Indianapolis Center
Sun 10:31:29 PM 39.8625 -80.2364 102° East 478 550 34,000  Level Indianapolis Center
Sun 10:32:30 PM 39.8328 -80.0669 103° East 479 551 34,000  Level Indianapolis Center
Sun 10:33:41 PM 39.8022 -79.8725 102° East 467 537 34,000  Level Washington Center
Sun 10:34:41 PM 39.7744 -79.7169 103° East 475 547 34,000 -300 Level Washington Center
Sun 10:35:41 PM 39.7444 -79.5506 103° East 475 547 33,400 -1,750 Descending Washington Center
Sun 10:36:41 PM 39.7167 -79.3817 102° East 475 547 30,500 -3,200 Descending Washington Center
Sun 10:37:41 PM 39.6883 -79.2183 103° East 475 547 27,000 -2,750 Descending Washington Center
Sun 10:38:41 PM 39.6578 -79.0553 104° East 470 541 25,000 -1,000 Descending Washington Center
Sun 10:39:41 PM 39.6150 -78.8725 107° East 470 541 25,000 -100 Level Washington Center
Sun 10:40:41 PM 39.5797 -78.7067 105° East 480 552 24,800 -1,500 Descending Washington Center
Sun 10:41:41 PM 39.5442 -78.5464 106° East 480 552 22,000 -2,800 Descending Washington Center
Sun 10:42:41 PM 39.5103 -78.3917 106° East 468 539 19,200 -2,500 Descending Washington Center
Sun 10:43:41 PM 39.4761 -78.2453 107° East 440 506 17,000 -2,100 Descending Washington Center
Sun 10:44:41 PM 39.4542 -78.1047 101° East 414 476 15,000 -1,250 Descending Washington Center
Sun 10:45:41 PM 39.4506 -77.9783 92° East 406 467 14,500 -600 Descending Washington Center
Sun 10:46:41 PM 39.4511 -77.8383 90° East 394 453 13,800 -700 Descending Washington Center
Sun 10:47:41 PM 39.4494 -77.6958 91° East 394 453 13,100 -800 Descending Washington Center
Sun 10:48:41 PM 39.4475 -77.5589 91° East 388 447 12,200 -950 Descending Washington Center
Sun 10:49:41 PM 39.4456 -77.4244 91° East 383 441 11,200 -643 Descending Washington Center
Sun 10:50:33 PM 39.4500 -77.3167 87° East 308 354 11,000 -212 Descending Potomac TRACON
Sun 10:51:34 PM 39.4667 -77.2000 79° East 300 345 10,800 -850 Descending Potomac TRACON
Sun 10:52:40 PM 39.4333 -77.1000 113° Southeast 286 329 9,200 -2,000 Descending Potomac TRACON
Sun 10:53:34 PM 39.3833 -77.0500 142° Southeast 269 310 6,800 -2,368 Descending Potomac TRACON
Sun 10:54:34 PM 39.3167 -77.0000 150° Southeast 262 302 4,700 -1,400 Descending Potomac TRACON
Sun 10:55:34 PM 39.2667 -76.9500 142° Southeast 230 265 4,000 -1,000 Descending Potomac TRACON
Sun 10:56:34 PM 39.2167 -76.9167 153° Southeast 206 237 2,700 -1,095 Descending Potomac TRACON
Sun 10:57:40 PM 39.1833 -76.8500 123° Southeast 165 190 1,700 -909 Descending Potomac TRACON

Login

Don't have an account? Register now (free) for customized features, flight alerts, and more!